sensor_id;sensor_type;location;lat;lon;timestamp;temperature;humidity
1461;DHT22;724;49.910;12.530;2022-09-28T00:01:27;5.60;1.00
1461;DHT22;724;49.910;12.530;2022-09-28T00:03:55;5.60;1.00
1461;DHT22;724;49.910;12.530;2022-09-28T00:06:25;5.60;1.00
1461;DHT22;724;49.910;12.530;2022-09-28T00:08:53;5.60;1.00
1461;DHT22;724;49.910;12.530;2022-09-28T00:11:21;5.60;1.00
1461;DHT22;724;49.910;12.530;2022-09-28T00:13:49;5.60;1.00
1461;DHT22;724;49.910;12.530;2022-09-28T00:16:18;5.60;1.00
1461;DHT22;724;49.910;12.530;2022-09-28T00:18:45;5.60;1.00
1461;DHT22;724;49.910;12.530;2022-09-28T00:21:15;5.60;1.00
1461;DHT22;724;49.910;12.530;2022-09-28T00:23:44;5.60;1.00
1461;DHT22;724;49.910;12.530;2022-09-28T00:26:30;5.60;1.00
1461;DHT22;724;49.910;12.530;2022-09-28T00:28:59;5.60;1.00
1461;DHT22;724;49.910;12.530;2022-09-28T00:31:26;5.50;1.00
1461;DHT22;724;49.910;12.530;2022-09-28T00:33:54;5.60;1.00
1461;DHT22;724;49.910;12.530;2022-09-28T00:36:22;5.60;1.00
1461;DHT22;724;49.910;12.530;2022-09-28T00:38:50;5.50;1.00
1461;DHT22;724;49.910;12.530;2022-09-28T00:41:17;5.60;1.00
1461;DHT22;724;49.910;12.530;2022-09-28T00:43:43;5.60;1.00
1461;DHT22;724;49.910;12.530;2022-09-28T00:46:14;5.50;1.00
1461;DHT22;724;49.910;12.530;2022-09-28T00:48:47;5.50;1.00
1461;DHT22;724;49.910;12.530;2022-09-28T00:51:15;5.50;1.00
1461;DHT22;724;49.910;12.530;2022-09-28T00:53:43;5.60;1.00
1461;DHT22;724;49.910;12.530;2022-09-28T00:56:14;5.50;1.00
1461;DHT22;724;49.910;12.530;2022-09-28T00:58:46;5.50;1.00
1461;DHT22;724;49.910;12.530;2022-09-28T01:01:13;5.60;1.00
1461;DHT22;724;49.910;12.530;2022-09-28T01:03:40;5.60;1.00
1461;DHT22;724;49.910;12.530;2022-09-28T01:06:12;5.50;1.00
1461;DHT22;724;49.910;12.530;2022-09-28T01:08:41;5.50;1.00
1461;DHT22;724;49.910;12.530;2022-09-28T01:11:11;5.50;1.00
1461;DHT22;724;49.910;12.530;2022-09-28T01:13:39;5.50;1.00
1461;DHT22;724;49.910;12.530;2022-09-28T01:16:10;5.50;1.00
1461;DHT22;724;49.910;12.530;2022-09-28T01:18:42;5.50;1.00
1461;DHT22;724;49.910;12.530;2022-09-28T01:21:15;5.50;1.00
1461;DHT22;724;49.910;12.530;2022-09-28T01:23:58;5.50;1.00
1461;DHT22;724;49.910;12.530;2022-09-28T01:26:53;5.40;1.00
1461;DHT22;724;49.910;12.530;2022-09-28T01:29:30;5.50;1.00
1461;DHT22;724;49.910;12.530;2022-09-28T01:32:05;5.50;1.00
1461;DHT22;724;49.910;12.530;2022-09-28T01:34:40;5.40;99.90
1461;DHT22;724;49.910;12.530;2022-09-28T01:37:10;5.40;99.90
1461;DHT22;724;49.910;12.530;2022-09-28T01:39:42;5.40;99.90
1461;DHT22;724;49.910;12.530;2022-09-28T01:42:15;5.40;99.90
1461;DHT22;724;49.910;12.530;2022-09-28T01:44:48;5.40;99.90
1461;DHT22;724;49.910;12.530;2022-09-28T01:47:19;5.30;99.90
1461;DHT22;724;49.910;12.530;2022-09-28T01:49:49;5.30;99.90
1461;DHT22;724;49.910;12.530;2022-09-28T01:52:20;5.40;99.90
1461;DHT22;724;49.910;12.530;2022-09-28T01:54:52;5.30;99.90
1461;DHT22;724;49.910;12.530;2022-09-28T01:57:23;5.30;99.90
1461;DHT22;724;49.910;12.530;2022-09-28T01:59:54;5.30;99.90
1461;DHT22;724;49.910;12.530;2022-09-28T02:02:26;5.30;99.90
1461;DHT22;724;49.910;12.530;2022-09-28T02:04:58;5.20;99.90
1461;DHT22;724;49.910;12.530;2022-09-28T02:07:32;5.30;99.90
1461;DHT22;724;49.910;12.530;2022-09-28T02:10:04;5.20;1.00
1461;DHT22;724;49.910;12.530;2022-09-28T02:12:36;5.10;1.00
1461;DHT22;724;49.910;12.530;2022-09-28T02:15:09;5.10;1.00
1461;DHT22;724;49.910;12.530;2022-09-28T02:17:37;5.10;1.00
1461;DHT22;724;49.910;12.530;2022-09-28T02:20:04;5.10;1.00
1461;DHT22;724;49.910;12.530;2022-09-28T02:22:33;5.00;1.00
1461;DHT22;724;49.910;12.530;2022-09-28T02:25:08;5.00;1.00
1461;DHT22;724;49.910;12.530;2022-09-28T02:27:40;5.10;1.00
1461;DHT22;724;49.910;12.530;2022-09-28T02:30:09;5.10;1.00
1461;DHT22;724;49.910;12.530;2022-09-28T02:32:38;5.00;1.00
1461;DHT22;724;49.910;12.530;2022-09-28T02:35:07;5.00;1.00
1461;DHT22;724;49.910;12.530;2022-09-28T02:37:34;5.00;1.00
1461;DHT22;724;49.910;12.530;2022-09-28T02:40:01;5.00;1.00
1461;DHT22;724;49.910;12.530;2022-09-28T02:42:35;5.00;99.90
1461;DHT22;724;49.910;12.530;2022-09-28T02:45:13;5.00;99.90
1461;DHT22;724;49.910;12.530;2022-09-28T02:47:55;5.00;99.90
1461;DHT22;724;49.910;12.530;2022-09-28T02:50:36;5.00;96.20
1461;DHT22;724;49.910;12.530;2022-09-28T02:53:18;5.00;58.80
1461;DHT22;724;49.910;12.530;2022-09-28T02:56:01;5.00;36.90
1461;DHT22;724;49.910;12.530;2022-09-28T02:58:38;4.90;99.90
1461;DHT22;724;49.910;12.530;2022-09-28T03:01:14;4.90;1.00
1461;DHT22;724;49.910;12.530;2022-09-28T03:03:47;4.90;1.00
1461;DHT22;724;49.910;12.530;2022-09-28T03:06:21;4.80;1.00
1461;DHT22;724;49.910;12.530;2022-09-28T03:08:52;4.80;1.00
1461;DHT22;724;49.910;12.530;2022-09-28T03:11:23;4.80;1.00
1461;DHT22;724;49.910;12.530;2022-09-28T03:13:50;4.80;1.00
1461;DHT22;724;49.910;12.530;2022-09-28T03:16:19;4.80;36.50
1461;DHT22;724;49.910;12.530;2022-09-28T03:18:46;4.90;99.90
1461;DHT22;724;49.910;12.530;2022-09-28T03:21:13;4.90;99.90
1461;DHT22;724;49.910;12.530;2022-09-28T03:23:41;4.90;56.30
1461;DHT22;724;49.910;12.530;2022-09-28T03:26:09;4.90;99.90
1461;DHT22;724;49.910;12.530;2022-09-28T03:28:36;4.90;99.90
1461;DHT22;724;49.910;12.530;2022-09-28T03:31:03;4.90;99.90
1461;DHT22;724;49.910;12.530;2022-09-28T03:33:31;5.00;99.90
1461;DHT22;724;49.910;12.530;2022-09-28T03:35:58;5.00;99.90
1461;DHT22;724;49.910;12.530;2022-09-28T03:38:25;5.00;99.90
1461;DHT22;724;49.910;12.530;2022-09-28T03:40:52;4.90;99.90
1461;DHT22;724;49.910;12.530;2022-09-28T03:43:20;4.90;1.00
1461;DHT22;724;49.910;12.530;2022-09-28T03:45:51;4.90;1.00
1461;DHT22;724;49.910;12.530;2022-09-28T03:48:20;4.90;1.00
1461;DHT22;724;49.910;12.530;2022-09-28T03:50:51;4.80;1.00
1461;DHT22;724;49.910;12.530;2022-09-28T03:53:18;4.80;1.00
1461;DHT22;724;49.910;12.530;2022-09-28T03:55:45;4.80;1.00
1461;DHT22;724;49.910;12.530;2022-09-28T03:58:12;4.80;1.00
1461;DHT22;724;49.910;12.530;2022-09-28T04:00:38;4.80;47.80
1461;DHT22;724;49.910;12.530;2022-09-28T04:03:05;4.80;99.90
1461;DHT22;724;49.910;12.530;2022-09-28T04:05:32;4.80;99.90
1461;DHT22;724;49.910;12.530;2022-09-28T04:08:01;4.80;99.90
1461;DHT22;724;49.910;12.530;2022-09-28T04:10:27;4.80;99.90
1461;DHT22;724;49.910;12.530;2022-09-28T04:12:54;4.80;99.90
1461;DHT22;724;49.910;12.530;2022-09-28T04:15:21;4.80;99.90
1461;DHT22;724;49.910;12.530;2022-09-28T04:17:48;4.80;99.90
1461;DHT22;724;49.910;12.530;2022-09-28T04:20:15;4.80;99.90
1461;DHT22;724;49.910;12.530;2022-09-28T04:22:41;4.80;99.90
1461;DHT22;724;49.910;12.530;2022-09-28T04:25:10;4.80;99.90
1461;DHT22;724;49.910;12.530;2022-09-28T04:27:36;4.80;99.90
1461;DHT22;724;49.910;12.530;2022-09-28T04:30:20;4.80;99.90
1461;DHT22;724;49.910;12.530;2022-09-28T04:32:47;4.80;99.90
1461;DHT22;724;49.910;12.530;2022-09-28T04:35:14;4.70;99.90
1461;DHT22;724;49.910;12.530;2022-09-28T04:37:41;4.80;99.90
1461;DHT22;724;49.910;12.530;2022-09-28T04:40:10;4.80;99.90
1461;DHT22;724;49.910;12.530;2022-09-28T04:42:37;4.80;99.90
1461;DHT22;724;49.910;12.530;2022-09-28T04:45:04;4.80;99.90
1461;DHT22;724;49.910;12.530;2022-09-28T04:47:31;4.70;19.80
1461;DHT22;724;49.910;12.530;2022-09-28T04:49:58;4.70;1.00
1461;DHT22;724;49.910;12.530;2022-09-28T04:52:24;4.80;99.90
1461;DHT22;724;49.910;12.530;2022-09-28T04:54:52;4.80;13.40
1461;DHT22;724;49.910;12.530;2022-09-28T04:57:20;4.70;99.90
1461;DHT22;724;49.910;12.530;2022-09-28T04:59:46;4.70;99.90
1461;DHT22;724;49.910;12.530;2022-09-28T05:02:13;4.70;99.90
1461;DHT22;724;49.910;12.530;2022-09-28T05:04:40;4.70;1.00
1461;DHT22;724;49.910;12.530;2022-09-28T05:07:07;4.70;1.00
1461;DHT22;724;49.910;12.530;2022-09-28T05:09:34;4.60;1.00
1461;DHT22;724;49.910;12.530;2022-09-28T05:12:00;4.60;99.90
1461;DHT22;724;49.910;12.530;2022-09-28T05:14:28;4.60;99.90
1461;DHT22;724;49.910;12.530;2022-09-28T05:16:55;4.60;1.00
1461;DHT22;724;49.910;12.530;2022-09-28T05:19:22;4.70;1.00
1461;DHT22;724;49.910;12.530;2022-09-28T05:21:48;4.70;1.00
1461;DHT22;724;49.910;12.530;2022-09-28T05:24:15;4.70;1.00
1461;DHT22;724;49.910;12.530;2022-09-28T05:26:42;4.70;1.00
1461;DHT22;724;49.910;12.530;2022-09-28T05:29:09;4.70;1.00
1461;DHT22;724;49.910;12.530;2022-09-28T05:31:37;4.70;1.00
1461;DHT22;724;49.910;12.530;2022-09-28T05:34:03;4.70;1.00
1461;DHT22;724;49.910;12.530;2022-09-28T05:36:30;4.70;1.00
1461;DHT22;724;49.910;12.530;2022-09-28T05:38:57;4.80;1.00
1461;DHT22;724;49.910;12.530;2022-09-28T05:41:24;4.70;1.80
1461;DHT22;724;49.910;12.530;2022-09-28T05:43:50;4.70;18.60
1461;DHT22;724;49.910;12.530;2022-09-28T05:46:19;4.70;54.50
1461;DHT22;724;49.910;12.530;2022-09-28T05:48:49;4.70;99.50
1461;DHT22;724;49.910;12.530;2022-09-28T05:51:16;4.70;99.90
1461;DHT22;724;49.910;12.530;2022-09-28T05:53:43;4.70;99.90
1461;DHT22;724;49.910;12.530;2022-09-28T05:56:10;4.70;99.90
1461;DHT22;724;49.910;12.530;2022-09-28T05:58:37;4.70;99.90
1461;DHT22;724;49.910;12.530;2022-09-28T06:01:03;4.70;99.90
1461;DHT22;724;49.910;12.530;2022-09-28T06:03:30;4.70;99.90
1461;DHT22;724;49.910;12.530;2022-09-28T06:06:00;4.70;99.90
1461;DHT22;724;49.910;12.530;2022-09-28T06:08:27;4.70;99.90
1461;DHT22;724;49.910;12.530;2022-09-28T06:10:58;4.80;99.90
1461;DHT22;724;49.910;12.530;2022-09-28T06:13:25;4.70;99.90
1461;DHT22;724;49.910;12.530;2022-09-28T06:15:52;4.70;99.90
1461;DHT22;724;49.910;12.530;2022-09-28T06:18:19;4.70;99.90
1461;DHT22;724;49.910;12.530;2022-09-28T06:20:46;4.80;99.90
1461;DHT22;724;49.910;12.530;2022-09-28T06:23:14;4.80;99.90
1461;DHT22;724;49.910;12.530;2022-09-28T06:25:41;4.80;99.90
1461;DHT22;724;49.910;12.530;2022-09-28T06:28:10;4.90;99.90
1461;DHT22;724;49.910;12.530;2022-09-28T06:30:37;4.90;99.90
1461;DHT22;724;49.910;12.530;2022-09-28T06:33:05;4.90;99.90
1461;DHT22;724;49.910;12.530;2022-09-28T06:35:33;4.90;99.90
1461;DHT22;724;49.910;12.530;2022-09-28T06:38:00;4.90;99.90
1461;DHT22;724;49.910;12.530;2022-09-28T06:40:28;4.90;99.90
1461;DHT22;724;49.910;12.530;2022-09-28T06:42:56;4.90;99.90
1461;DHT22;724;49.910;12.530;2022-09-28T06:45:23;4.90;99.90
1461;DHT22;724;49.910;12.530;2022-09-28T06:47:54;4.90;99.90
1461;DHT22;724;49.910;12.530;2022-09-28T06:50:22;4.90;99.90
1461;DHT22;724;49.910;12.530;2022-09-28T06:52:50;4.90;99.90
1461;DHT22;724;49.910;12.530;2022-09-28T06:55:17;4.90;99.90
1461;DHT22;724;49.910;12.530;2022-09-28T06:57:45;5.00;99.90
1461;DHT22;724;49.910;12.530;2022-09-28T07:00:13;4.90;99.90
1461;DHT22;724;49.910;12.530;2022-09-28T07:02:40;5.00;99.90
1461;DHT22;724;49.910;12.530;2022-09-28T07:05:09;5.00;99.90
1461;DHT22;724;49.910;12.530;2022-09-28T07:07:37;5.10;99.90
1461;DHT22;724;49.910;12.530;2022-09-28T07:10:05;5.10;99.90
1461;DHT22;724;49.910;12.530;2022-09-28T07:12:34;5.20;99.90
1461;DHT22;724;49.910;12.530;2022-09-28T07:15:03;5.20;99.90
1461;DHT22;724;49.910;12.530;2022-09-28T07:17:30;5.40;99.90
1461;DHT22;724;49.910;12.530;2022-09-28T07:19:59;5.30;99.90
1461;DHT22;724;49.910;12.530;2022-09-28T07:22:25;5.30;99.90
1461;DHT22;724;49.910;12.530;2022-09-28T07:24:52;5.40;99.90
1461;DHT22;724;49.910;12.530;2022-09-28T07:27:19;5.30;99.90
1461;DHT22;724;49.910;12.530;2022-09-28T07:29:46;5.40;99.90
1461;DHT22;724;49.910;12.530;2022-09-28T07:32:14;5.40;99.90
1461;DHT22;724;49.910;12.530;2022-09-28T07:34:40;5.40;99.90
1461;DHT22;724;49.910;12.530;2022-09-28T07:37:09;5.50;99.90
1461;DHT22;724;49.910;12.530;2022-09-28T07:39:37;5.60;99.90
1461;DHT22;724;49.910;12.530;2022-09-28T07:42:17;5.70;99.90
1461;DHT22;724;49.910;12.530;2022-09-28T07:44:44;5.70;99.90
1461;DHT22;724;49.910;12.530;2022-09-28T07:47:11;5.80;99.90
1461;DHT22;724;49.910;12.530;2022-09-28T07:49:39;5.80;99.90
1461;DHT22;724;49.910;12.530;2022-09-28T07:52:06;5.90;99.90
1461;DHT22;724;49.910;12.530;2022-09-28T07:54:33;5.90;99.90
1461;DHT22;724;49.910;12.530;2022-09-28T07:57:00;5.80;1.00
1461;DHT22;724;49.910;12.530;2022-09-28T07:59:27;6.00;1.00
1461;DHT22;724;49.910;12.530;2022-09-28T08:01:56;5.80;1.00
1461;DHT22;724;49.910;12.530;2022-09-28T08:04:23;6.00;79.70
1461;DHT22;724;49.910;12.530;2022-09-28T08:06:51;6.00;36.00
1461;DHT22;724;49.910;12.530;2022-09-28T08:09:18;6.10;97.10
1461;DHT22;724;49.910;12.530;2022-09-28T08:11:44;6.10;1.00
1461;DHT22;724;49.910;12.530;2022-09-28T08:14:11;6.30;6.40
1461;DHT22;724;49.910;12.530;2022-09-28T08:16:38;6.30;1.00
1461;DHT22;724;49.910;12.530;2022-09-28T08:19:04;6.30;1.00
1461;DHT22;724;49.910;12.530;2022-09-28T08:21:31;6.40;1.00
1461;DHT22;724;49.910;12.530;2022-09-28T08:24:14;6.50;1.00
1461;DHT22;724;49.910;12.530;2022-09-28T08:26:42;6.70;1.00
1461;DHT22;724;49.910;12.530;2022-09-28T08:29:09;6.70;1.00
1461;DHT22;724;49.910;12.530;2022-09-28T08:31:36;6.70;1.00
1461;DHT22;724;49.910;12.530;2022-09-28T08:34:02;6.70;1.00
1461;DHT22;724;49.910;12.530;2022-09-28T08:36:29;6.80;1.00
1461;DHT22;724;49.910;12.530;2022-09-28T08:38:56;6.80;1.00
1461;DHT22;724;49.910;12.530;2022-09-28T08:41:31;6.90;1.00
1461;DHT22;724;49.910;12.530;2022-09-28T08:44:10;7.10;1.00
1461;DHT22;724;49.910;12.530;2022-09-28T08:46:41;7.20;99.90
1461;DHT22;724;49.910;12.530;2022-09-28T08:49:12;7.20;99.90
1461;DHT22;724;49.910;12.530;2022-09-28T08:51:46;7.10;99.90
1461;DHT22;724;49.910;12.530;2022-09-28T08:54:30;7.10;99.90
1461;DHT22;724;49.910;12.530;2022-09-28T08:57:03;7.10;99.90
1461;DHT22;724;49.910;12.530;2022-09-28T08:59:41;6.90;99.90
1461;DHT22;724;49.910;12.530;2022-09-28T09:02:14;7.30;1.00
1461;DHT22;724;49.910;12.530;2022-09-28T09:04:41;7.30;99.90
1461;DHT22;724;49.910;12.530;2022-09-28T09:07:41;7.20;99.90
1461;DHT22;724;49.910;12.530;2022-09-28T09:13:41;7.00;99.90
1461;DHT22;724;49.910;12.530;2022-09-28T09:16:18;7.10;1.00
1461;DHT22;724;49.910;12.530;2022-09-28T09:18:54;7.40;1.00
1461;DHT22;724;49.910;12.530;2022-09-28T09:21:37;7.70;1.00
1461;DHT22;724;49.910;12.530;2022-09-28T09:24:14;7.60;1.00
1461;DHT22;724;49.910;12.530;2022-09-28T09:26:42;7.40;99.90
1461;DHT22;724;49.910;12.530;2022-09-28T09:29:21;7.30;1.00
1461;DHT22;724;49.910;12.530;2022-09-28T09:32:14;7.30;1.00
1461;DHT22;724;49.910;12.530;2022-09-28T09:35:11;7.40;1.00
1461;DHT22;724;49.910;12.530;2022-09-28T09:37:53;7.50;1.00
1461;DHT22;724;49.910;12.530;2022-09-28T09:40:31;7.80;1.00
1461;DHT22;724;49.910;12.530;2022-09-28T09:43:08;8.10;99.90
1461;DHT22;724;49.910;12.530;2022-09-28T09:45:54;8.90;1.00
1461;DHT22;724;49.910;12.530;2022-09-28T09:48:28;9.10;1.00
1461;DHT22;724;49.910;12.530;2022-09-28T09:50:58;9.30;49.80
1461;DHT22;724;49.910;12.530;2022-09-28T09:53:28;10.80;1.00
1461;DHT22;724;49.910;12.530;2022-09-28T09:56:00;10.20;99.90
1461;DHT22;724;49.910;12.530;2022-09-28T09:58:32;9.70;99.90
1461;DHT22;724;49.910;12.530;2022-09-28T10:01:06;9.30;1.00
1461;DHT22;724;49.910;12.530;2022-09-28T10:03:37;9.20;1.00
1461;DHT22;724;49.910;12.530;2022-09-28T10:06:07;9.40;1.00
1461;DHT22;724;49.910;12.530;2022-09-28T10:08:39;9.50;1.00
1461;DHT22;724;49.910;12.530;2022-09-28T10:11:12;10.20;1.00
1461;DHT22;724;49.910;12.530;2022-09-28T10:13:40;11.20;99.90
1461;DHT22;724;49.910;12.530;2022-09-28T10:16:10;12.10;1.00
1461;DHT22;724;49.910;12.530;2022-09-28T10:18:37;12.40;1.00
1461;DHT22;724;49.910;12.530;2022-09-28T10:21:04;13.20;1.00
1461;DHT22;724;49.910;12.530;2022-09-28T10:23:33;13.90;1.00
1461;DHT22;724;49.910;12.530;2022-09-28T10:26:03;13.80;1.00
1461;DHT22;724;49.910;12.530;2022-09-28T10:28:38;12.30;1.00
1461;DHT22;724;49.910;12.530;2022-09-28T10:31:34;11.50;1.00
1461;DHT22;724;49.910;12.530;2022-09-28T10:34:02;11.40;1.00
1461;DHT22;724;49.910;12.530;2022-09-28T10:36:30;11.10;1.00
1461;DHT22;724;49.910;12.530;2022-09-28T10:39:03;10.50;1.00
1461;DHT22;724;49.910;12.530;2022-09-28T10:41:30;9.40;1.00
1461;DHT22;724;49.910;12.530;2022-09-28T10:44:01;8.80;1.00
1461;DHT22;724;49.910;12.530;2022-09-28T10:46:37;8.50;81.10
1461;DHT22;724;49.910;12.530;2022-09-28T10:49:06;8.20;99.90
1461;DHT22;724;49.910;12.530;2022-09-28T10:51:40;8.10;99.90
1461;DHT22;724;49.910;12.530;2022-09-28T10:54:14;8.20;1.00
1461;DHT22;724;49.910;12.530;2022-09-28T10:56:42;9.90;99.90
1461;DHT22;724;49.910;12.530;2022-09-28T10:59:37;9.80;1.00
1461;DHT22;724;49.910;12.530;2022-09-28T11:02:15;9.40;1.00
1461;DHT22;724;49.910;12.530;2022-09-28T11:04:49;9.40;1.00
1461;DHT22;724;49.910;12.530;2022-09-28T11:07:18;11.30;1.00
1461;DHT22;724;49.910;12.530;2022-09-28T11:09:47;12.20;1.00
1461;DHT22;724;49.910;12.530;2022-09-28T11:12:16;12.90;1.00
1461;DHT22;724;49.910;12.530;2022-09-28T11:14:45;14.20;1.00
1461;DHT22;724;49.910;12.530;2022-09-28T11:17:25;14.10;99.90
1461;DHT22;724;49.910;12.530;2022-09-28T11:19:53;12.80;99.90
1461;DHT22;724;49.910;12.530;2022-09-28T11:22:21;12.80;99.90
1461;DHT22;724;49.910;12.530;2022-09-28T11:24:49;11.60;99.90
1461;DHT22;724;49.910;12.530;2022-09-28T11:27:21;11.40;1.00
1461;DHT22;724;49.910;12.530;2022-09-28T11:29:54;11.00;1.00
1461;DHT22;724;49.910;12.530;2022-09-28T11:32:27;10.90;1.00
1461;DHT22;724;49.910;12.530;2022-09-28T11:34:57;10.60;1.00
1461;DHT22;724;49.910;12.530;2022-09-28T11:37:34;10.20;1.00
1461;DHT22;724;49.910;12.530;2022-09-28T11:40:14;10.20;1.00
1461;DHT22;724;49.910;12.530;2022-09-28T11:42:46;9.60;1.00
1461;DHT22;724;49.910;12.530;2022-09-28T11:45:29;9.90;1.00
1461;DHT22;724;49.910;12.530;2022-09-28T11:48:00;10.40;1.00
1461;DHT22;724;49.910;12.530;2022-09-28T11:50:34;10.60;1.00
1461;DHT22;724;49.910;12.530;2022-09-28T11:53:16;10.40;1.00
1461;DHT22;724;49.910;12.530;2022-09-28T11:55:46;10.60;1.00
1461;DHT22;724;49.910;12.530;2022-09-28T11:58:21;11.10;1.00
1461;DHT22;724;49.910;12.530;2022-09-28T12:00:53;11.50;1.00
1461;DHT22;724;49.910;12.530;2022-09-28T12:03:25;11.60;99.90
1461;DHT22;724;49.910;12.530;2022-09-28T12:05:57;11.70;99.90
1461;DHT22;724;49.910;12.530;2022-09-28T12:08:26;11.30;99.90
1461;DHT22;724;49.910;12.530;2022-09-28T12:10:57;11.40;99.90
1461;DHT22;724;49.910;12.530;2022-09-28T12:13:27;11.10;99.90
1461;DHT22;724;49.910;12.530;2022-09-28T12:15:58;11.40;99.90
1461;DHT22;724;49.910;12.530;2022-09-28T12:18:31;11.00;99.90
1461;DHT22;724;49.910;12.530;2022-09-28T12:21:08;11.00;99.90
1461;DHT22;724;49.910;12.530;2022-09-28T12:23:40;10.60;99.90
1461;DHT22;724;49.910;12.530;2022-09-28T12:26:19;10.70;99.90
1461;DHT22;724;49.910;12.530;2022-09-28T12:28:50;10.50;99.90
1461;DHT22;724;49.910;12.530;2022-09-28T12:31:24;10.40;99.90
1461;DHT22;724;49.910;12.530;2022-09-28T12:33:55;10.40;99.90
1461;DHT22;724;49.910;12.530;2022-09-28T12:36:33;10.10;99.90
1461;DHT22;724;49.910;12.530;2022-09-28T12:39:17;10.10;99.90
1461;DHT22;724;49.910;12.530;2022-09-28T12:41:59;10.00;99.90
1461;DHT22;724;49.910;12.530;2022-09-28T12:44:43;10.10;99.90
1461;DHT22;724;49.910;12.530;2022-09-28T12:47:23;10.20;99.90
1461;DHT22;724;49.910;12.530;2022-09-28T12:50:02;10.20;99.90
1461;DHT22;724;49.910;12.530;2022-09-28T12:52:37;9.70;99.90
1461;DHT22;724;49.910;12.530;2022-09-28T12:55:18;9.60;99.90
1461;DHT22;724;49.910;12.530;2022-09-28T12:57:56;9.90;99.90
1461;DHT22;724;49.910;12.530;2022-09-28T13:00:26;9.80;99.90
1461;DHT22;724;49.910;12.530;2022-09-28T13:03:16;9.80;99.90
1461;DHT22;724;49.910;12.530;2022-09-28T13:09:00;9.50;99.90
1461;DHT22;724;49.910;12.530;2022-09-28T13:11:34;9.50;99.90
1461;DHT22;724;49.910;12.530;2022-09-28T13:14:21;9.50;99.90
1461;DHT22;724;49.910;12.530;2022-09-28T13:16:55;9.40;99.90
1461;DHT22;724;49.910;12.530;2022-09-28T13:19:26;9.60;99.90
1461;DHT22;724;49.910;12.530;2022-09-28T13:22:12;9.70;99.90
1461;DHT22;724;49.910;12.530;2022-09-28T13:24:44;9.60;99.90
1461;DHT22;724;49.910;12.530;2022-09-28T13:27:14;9.30;99.90
1461;DHT22;724;49.910;12.530;2022-09-28T13:29:44;9.00;99.90
1461;DHT22;724;49.910;12.530;2022-09-28T13:32:15;9.20;99.90
1461;DHT22;724;49.910;12.530;2022-09-28T13:34:47;9.20;99.90
1461;DHT22;724;49.910;12.530;2022-09-28T13:37:20;9.40;99.90
1461;DHT22;724;49.910;12.530;2022-09-28T13:39:51;9.30;99.90
1461;DHT22;724;49.910;12.530;2022-09-28T13:42:57;9.60;99.90
1461;DHT22;724;49.910;12.530;2022-09-28T13:45:30;9.50;99.90
1461;DHT22;724;49.910;12.530;2022-09-28T13:48:14;9.60;99.90
1461;DHT22;724;49.910;12.530;2022-09-28T13:51:03;9.40;99.90
1461;DHT22;724;49.910;12.530;2022-09-28T13:53:40;9.50;99.90
1461;DHT22;724;49.910;12.530;2022-09-28T13:56:24;9.50;99.90
1461;DHT22;724;49.910;12.530;2022-09-28T13:58:54;9.30;99.90
1461;DHT22;724;49.910;12.530;2022-09-28T14:01:27;9.20;99.90
1461;DHT22;724;49.910;12.530;2022-09-28T14:04:10;9.10;99.90
1461;DHT22;724;49.910;12.530;2022-09-28T14:06:40;9.20;99.90
1461;DHT22;724;49.910;12.530;2022-09-28T14:09:26;9.50;99.90
1461;DHT22;724;49.910;12.530;2022-09-28T14:12:27;9.40;99.90
1461;DHT22;724;49.910;12.530;2022-09-28T14:14:54;9.30;99.90
1461;DHT22;724;49.910;12.530;2022-09-28T14:17:48;9.10;99.90
1461;DHT22;724;49.910;12.530;2022-09-28T14:20:18;8.90;99.90
1461;DHT22;724;49.910;12.530;2022-09-28T14:23:14;8.90;99.90
1461;DHT22;724;49.910;12.530;2022-09-28T14:25:58;9.10;99.90
1461;DHT22;724;49.910;12.530;2022-09-28T14:28:40;9.40;99.90
1461;DHT22;724;49.910;12.530;2022-09-28T14:31:14;9.50;99.90
1461;DHT22;724;49.910;12.530;2022-09-28T14:33:53;9.40;99.90
1461;DHT22;724;49.910;12.530;2022-09-28T14:36:23;9.30;99.90
1461;DHT22;724;49.910;12.530;2022-09-28T14:39:20;9.40;99.90
1461;DHT22;724;49.910;12.530;2022-09-28T14:42:09;9.20;99.90
1461;DHT22;724;49.910;12.530;2022-09-28T14:48:17;9.20;99.90
1461;DHT22;724;49.910;12.530;2022-09-28T14:50:45;9.50;99.90
1461;DHT22;724;49.910;12.530;2022-09-28T14:53:19;9.60;99.90
1461;DHT22;724;49.910;12.530;2022-09-28T14:55:49;9.50;99.90
1461;DHT22;724;49.910;12.530;2022-09-28T14:58:19;9.30;99.90
1461;DHT22;724;49.910;12.530;2022-09-28T15:00:50;9.20;99.90
1461;DHT22;724;49.910;12.530;2022-09-28T15:03:20;9.20;99.90
1461;DHT22;724;49.910;12.530;2022-09-28T15:05:48;9.10;99.90
1461;DHT22;724;49.910;12.530;2022-09-28T15:08:18;8.80;99.90
1461;DHT22;724;49.910;12.530;2022-09-28T15:10:47;8.60;99.90
1461;DHT22;724;49.910;12.530;2022-09-28T15:13:23;8.50;99.90
1461;DHT22;724;49.910;12.530;2022-09-28T15:15:52;8.60;99.90
1461;DHT22;724;49.910;12.530;2022-09-28T15:18:31;8.70;99.90
1461;DHT22;724;49.910;12.530;2022-09-28T15:21:03;8.70;99.90
1461;DHT22;724;49.910;12.530;2022-09-28T15:23:34;8.60;99.90
1461;DHT22;724;49.910;12.530;2022-09-28T15:26:01;8.60;99.90
1461;DHT22;724;49.910;12.530;2022-09-28T15:28:28;8.60;99.90
1461;DHT22;724;49.910;12.530;2022-09-28T15:30:59;8.60;99.90
1461;DHT22;724;49.910;12.530;2022-09-28T15:33:28;8.60;99.90
1461;DHT22;724;49.910;12.530;2022-09-28T15:36:16;8.60;99.90
1461;DHT22;724;49.910;12.530;2022-09-28T15:38:53;8.60;99.90
1461;DHT22;724;49.910;12.530;2022-09-28T15:41:21;8.50;99.90
1461;DHT22;724;49.910;12.530;2022-09-28T15:44:05;8.70;99.90
1461;DHT22;724;49.910;12.530;2022-09-28T15:46:33;8.90;99.90
1461;DHT22;724;49.910;12.530;2022-09-28T15:49:03;9.00;99.90
1461;DHT22;724;49.910;12.530;2022-09-28T15:51:44;9.10;99.90
1461;DHT22;724;49.910;12.530;2022-09-28T15:54:14;9.00;99.90
1461;DHT22;724;49.910;12.530;2022-09-28T15:56:51;8.80;99.90
1461;DHT22;724;49.910;12.530;2022-09-28T15:59:28;8.80;99.90
1461;DHT22;724;49.910;12.530;2022-09-28T16:02:09;8.70;99.90
1461;DHT22;724;49.910;12.530;2022-09-28T16:04:45;8.60;99.90
1461;DHT22;724;49.910;12.530;2022-09-28T16:07:38;8.40;99.90
1461;DHT22;724;49.910;12.530;2022-09-28T16:10:28;8.30;99.90
1461;DHT22;724;49.910;12.530;2022-09-28T16:13:06;8.40;99.90
1461;DHT22;724;49.910;12.530;2022-09-28T16:15:35;8.40;99.90
1461;DHT22;724;49.910;12.530;2022-09-28T16:18:05;8.30;99.90
1461;DHT22;724;49.910;12.530;2022-09-28T16:20:42;8.30;99.90
1461;DHT22;724;49.910;12.530;2022-09-28T16:23:18;8.40;99.90
1461;DHT22;724;49.910;12.530;2022-09-28T16:25:48;8.50;99.90
1461;DHT22;724;49.910;12.530;2022-09-28T16:28:24;8.40;99.90
1461;DHT22;724;49.910;12.530;2022-09-28T16:30:59;8.40;99.90
1461;DHT22;724;49.910;12.530;2022-09-28T16:33:28;8.40;1.00
1461;DHT22;724;49.910;12.530;2022-09-28T16:36:01;8.30;1.00
1461;DHT22;724;49.910;12.530;2022-09-28T16:38:28;8.30;1.00
1461;DHT22;724;49.910;12.530;2022-09-28T16:40:55;8.20;1.00
1461;DHT22;724;49.910;12.530;2022-09-28T16:43:28;8.10;1.00
1461;DHT22;724;49.910;12.530;2022-09-28T16:45:58;8.00;1.00
1461;DHT22;724;49.910;12.530;2022-09-28T16:48:27;8.00;1.00
1461;DHT22;724;49.910;12.530;2022-09-28T16:50:56;8.00;1.00
1461;DHT22;724;49.910;12.530;2022-09-28T16:53:23;8.00;1.00
1461;DHT22;724;49.910;12.530;2022-09-28T16:56:10;8.00;1.00
1461;DHT22;724;49.910;12.530;2022-09-28T16:58:38;7.90;1.00
1461;DHT22;724;49.910;12.530;2022-09-28T17:01:09;7.90;1.00
1461;DHT22;724;49.910;12.530;2022-09-28T17:03:40;7.90;1.00